^^
Station Historical Data
Daily Summary for March 8, 2018 Units:  English    Metric   Both
« Previous Day
Next Day »
Daily Weekly Monthly Yearly Custom
  High: Low: Average:
Temperature: TemperatureF °F 59.2 °F 69.7 °F
Dew Point: DewpointF °F 51.4 °F 57.6 °F
Humidity: Humidity% 41% 68%
Wind Speed: WindSpeedMPHmph 0.0mph 1.2mph
Wind Gust: WindSpeedGustMPHmph - -
Wind- - WSW
Pressure: PressureIn in 29.70 in -
Precipitation: 0.00 in    
Historical Graphs
 
 
Tabular Data for March 8, 2018
Time Temperature Dew Point Pressure Wind Wind Speed Wind Gust Humidity Rainfall Rate (Hourly) solar Conditions
TemperatureF °F DewpointF °F PressureIn in Calm     Humidity% HourlyPrecipIn in SolarRadiationWatts/m^2 W/m2 Conditions
00:04 63.1 °F 60.4 °F 29.80 in Calm   1.0 mph 91% 0.01 in 0.0 W/m2
00:09 63.3 °F 61.0 °F 29.80 in Calm     92% 0.01 in 0.0 W/m2
00:14 63.3 °F 61.0 °F 29.80 in WSW 2.0 mph 2.0 mph 92% 0.01 in 0.0 W/m2
00:19 63.3 °F 61.0 °F 29.80 in Calm     92% 0.01 in 0.0 W/m2
00:25 63.3 °F 61.0 °F 29.80 in Calm   1.0 mph 92% 0.01 in 0.0 W/m2
00:30 63.1 °F 60.4 °F 29.80 in WSW 0.9 mph 3.0 mph 91% 0.01 in 0.0 W/m2
00:35 63.1 °F 60.1 °F 29.80 in WSW 0.9 mph 3.0 mph 90% 0.01 in 0.0 W/m2
00:40 63.1 °F 60.1 °F 29.80 in WSW 2.9 mph 3.0 mph 90% 0.01 in 0.0 W/m2
00:45 63.1 °F 59.9 °F 29.80 in Calm     89% 0.01 in 0.0 W/m2
00:50 63.1 °F 59.9 °F 29.80 in Calm     89% 0.01 in 0.0 W/m2
00:55 63.1 °F 59.9 °F 29.80 in Calm     89% 0.01 in 0.0 W/m2
01:00 63.1 °F 59.9 °F 29.80 in Calm   1.0 mph 89% 0.00 in 0.0 W/m2
01:06 63.1 °F 59.5 °F 29.80 in Calm   1.0 mph 88% 0.00 in 0.0 W/m2
01:11 63.0 °F 59.4 °F 29.80 in Calm   1.0 mph 88% 0.00 in 0.0 W/m2
01:17 63.0 °F 59.4 °F 29.80 in Calm   1.0 mph 88% 0.00 in 0.0 W/m2
01:22 63.0 °F 59.4 °F 29.80 in WSW 0.9 mph 2.0 mph 88% 0.00 in 0.0 W/m2
01:27 63.0 °F 59.4 °F 29.80 in Calm     88% 0.00 in 0.0 W/m2
01:32 63.0 °F 59.4 °F 29.80 in Calm     88% 0.00 in 0.0 W/m2
01:37 62.8 °F 59.2 °F 29.80 in WSW 0.9 mph 2.0 mph 88% 0.00 in 0.0 W/m2
01:42 62.8 °F 59.2 °F 29.79 in Calm     88% 0.00 in 0.0 W/m2
01:47 62.8 °F 59.2 °F 29.79 in Calm     88% 0.00 in 0.0 W/m2
01:53 62.6 °F 59.0 °F 29.79 in Calm     88% 0.00 in 0.0 W/m2
01:58 62.4 °F 59.2 °F 29.79 in Calm     89% 0.00 in 0.0 W/m2
02:03 62.4 °F 59.2 °F 29.79 in Calm     89% 0.00 in 0.0 W/m2
02:08 62.4 °F 59.2 °F 29.79 in Calm     89% 0.00 in 0.0 W/m2
02:13 62.4 °F 59.2 °F 29.79 in Calm     89% 0.00 in 0.0 W/m2
02:18 62.2 °F 59.2 °F 29.79 in Calm     90% 0.00 in 0.0 W/m2
02:23 62.2 °F 59.2 °F 29.79 in Calm     90% 0.00 in 0.0 W/m2
02:28 62.2 °F 59.2 °F 29.78 in Calm     90% 0.00 in 0.0 W/m2
02:33 62.2 °F 59.2 °F 29.78 in Calm   1.0 mph 90% 0.00 in 0.0 W/m2
02:39 62.2 °F 59.2 °F 29.78 in Calm     90% 0.00 in 0.0 W/m2
02:44 62.1 °F 59.2 °F 29.78 in Calm     90% 0.00 in 0.0 W/m2
02:50 62.1 °F 59.2 °F 29.78 in Calm     90% 0.00 in 0.0 W/m2
02:55 62.1 °F 59.2 °F 29.78 in Calm     90% 0.00 in 0.0 W/m2
03:00 62.1 °F 59.2 °F 29.77 in Calm     90% 0.00 in 0.0 W/m2
03:05 61.9 °F 59.2 °F 29.77 in Calm     91% 0.00 in 0.0 W/m2
03:10 61.9 °F 59.2 °F 29.77 in Calm     91% 0.00 in 0.0 W/m2
03:15 61.9 °F 59.2 °F 29.77 in Calm     91% 0.00 in 0.0 W/m2
03:20 61.7 °F 59.0 °F 29.77 in Calm     91% 0.00 in 0.0 W/m2
03:26 61.5 °F 58.8 °F 29.76 in Calm     91% 0.00 in 0.0 W/m2
03:31 61.3 °F 58.6 °F 29.77 in Calm     91% 0.00 in 0.0 W/m2
03:36 61.3 °F 59.0 °F 29.76 in Calm     92% 0.00 in 0.0 W/m2
03:41 61.2 °F 58.8 °F 29.77 in Calm     92% 0.00 in 0.0 W/m2
03:46 61.2 °F 58.8 °F 29.76 in Calm     92% 0.00 in 0.0 W/m2
03:51 61.2 °F 58.8 °F 29.76 in Calm     92% 0.00 in 0.0 W/m2
03:56 61.0 °F 58.6 °F 29.76 in Calm     92% 0.00 in 0.0 W/m2
04:01 61.0 °F 58.6 °F 29.76 in Calm     92% 0.00 in 0.0 W/m2
04:06 61.0 °F 58.6 °F 29.76 in Calm     92% 0.00 in 0.0 W/m2
04:12 60.8 °F 58.5 °F 29.77 in Calm     92% 0.00 in 0.0 W/m2
04:17 60.6 °F 58.3 °F 29.77 in Calm     92% 0.00 in 0.0 W/m2
04:22 60.6 °F 58.3 °F 29.77 in Calm     92% 0.00 in 0.0 W/m2
04:27 60.4 °F 58.1 °F 29.76 in Calm     92% 0.00 in 0.0 W/m2
04:32 60.3 °F 57.9 °F 29.76 in Calm     92% 0.00 in 0.0 W/m2
04:37 60.3 °F 57.9 °F 29.76 in Calm   1.0 mph 92% 0.00 in 0.0 W/m2
04:42 60.1 °F 58.1 °F 29.76 in Calm   1.0 mph 93% 0.00 in 0.0 W/m2
04:47 60.1 °F 57.7 °F 29.76 in Calm     92% 0.00 in 0.0 W/m2
04:52 59.9 °F 57.6 °F 29.76 in Calm     92% 0.00 in 0.0 W/m2
04:58 59.7 °F 57.4 °F 29.76 in Calm     92% 0.00 in 0.0 W/m2
05:03 59.7 °F 57.4 °F 29.76 in Calm     92% 0.00 in 0.0 W/m2
05:08 59.7 °F 57.7 °F 29.76 in Calm     93% 0.00 in 0.0 W/m2
05:13 59.5 °F 57.6 °F 29.76 in Calm     93% 0.00 in 0.0 W/m2
05:19 59.5 °F 57.6 °F 29.76 in Calm     93% 0.00 in 0.0 W/m2
05:24 59.5 °F 57.6 °F 29.76 in Calm     93% 0.00 in 0.0 W/m2
05:29 59.4 °F 57.4 °F 29.77 in Calm     93% 0.00 in 0.0 W/m2
05:34 59.4 °F 57.4 °F 29.77 in Calm     93% 0.00 in 0.0 W/m2
05:39 59.4 °F 57.4 °F 29.77 in Calm     93% 0.00 in 0.0 W/m2
05:45 59.4 °F 57.4 °F 29.77 in Calm     93% 0.00 in 0.0 W/m2
05:50 59.2 °F 57.2 °F 29.78 in Calm     93% 0.00 in 0.0 W/m2
05:55 59.2 °F 57.2 °F 29.78 in Calm     93% 0.00 in 0.0 W/m2
06:00 59.2 °F 57.4 °F 29.78 in Calm     94% 0.00 in 0.0 W/m2
06:05 59.4 °F 57.6 °F 29.78 in Calm     94% 0.00 in 0.0 W/m2
06:10 59.4 °F 57.6 °F 29.78 in Calm     94% 0.00 in 0.0 W/m2
06:15 59.4 °F 57.6 °F 29.78 in Calm     94% 0.00 in 0.0 W/m2
06:20 59.4 °F 57.6 °F 29.78 in Calm     94% 0.00 in 0.0 W/m2
06:25 59.5 °F 57.7 °F 29.79 in Calm     94% 0.00 in 0.0 W/m2
06:31 59.5 °F 57.7 °F 29.79 in Calm     94% 0.00 in 0.0 W/m2
06:36 59.5 °F 57.7 °F 29.79 in Calm     94% 0.00 in 0.0 W/m2
06:41 59.5 °F 57.6 °F 29.79 in Calm     93% 0.00 in 0.0 W/m2
06:46 59.5 °F 57.6 °F 29.78 in Calm   2.0 mph 93% 0.00 in 0.0 W/m2
06:51 59.5 °F 57.6 °F 29.78 in Calm     93% 0.00 in 0.0 W/m2
06:56 59.5 °F 57.6 °F 29.78 in Calm   1.0 mph 93% 0.00 in 0.0 W/m2
07:01 59.5 °F 57.6 °F 29.78 in Calm     93% 0.00 in 5.0 W/m2
07:06 59.5 °F 57.6 °F 29.79 in Calm     93% 0.00 in 9.0 W/m2
07:12 59.4 °F 57.4 °F 29.79 in Calm     93% 0.00 in 11.0 W/m2
07:17 59.4 °F 57.4 °F 29.79 in Calm     93% 0.00 in 14.0 W/m2
07:22 59.4 °F 57.4 °F 29.79 in Calm     93% 0.00 in 16.0 W/m2
07:27 59.5 °F 57.6 °F 29.79 in Calm     93% 0.00 in 25.0 W/m2
07:32 59.5 °F 57.7 °F 29.80 in Calm     94% 0.00 in 42.0 W/m2
07:37 59.7 °F 57.9 °F 29.80 in Calm     94% 0.00 in 51.0 W/m2
07:42 59.7 °F 57.9 °F 29.80 in Calm     94% 0.00 in 67.0 W/m2
07:47 60.1 °F 58.3 °F 29.80 in Calm     94% 0.00 in 63.0 W/m2
07:52 60.1 °F 58.3 °F 29.80 in Calm     94% 0.00 in 42.0 W/m2
07:58 60.3 °F 58.3 °F 29.80 in Calm     93% 0.00 in 26.0 W/m2
08:03 60.3 °F 58.3 °F 29.80 in Calm     93% 0.00 in 33.0 W/m2
08:09 60.4 °F 58.5 °F 29.80 in Calm     93% 0.00 in 25.0 W/m2
08:14 60.6 °F 58.3 °F 29.80 in Calm     92% 0.00 in 25.0 W/m2
08:19 60.6 °F 58.3 °F 29.80 in Calm     92% 0.00 in 26.0 W/m2
08:24 61.0 °F 58.6 °F 29.80 in Calm   2.0 mph 92% 0.00 in 28.0 W/m2
08:29 61.2 °F 58.5 °F 29.80 in Calm   1.0 mph 91% 0.00 in 28.0 W/m2
08:34 61.3 °F 58.5 °F 29.80 in Calm   2.0 mph 90% 0.00 in 37.0 W/m2
08:39 61.5 °F 58.3 °F 29.80 in Calm     89% 0.00 in 35.0 W/m2
08:45 61.9 °F 58.3 °F 29.81 in Calm   2.0 mph 88% 0.00 in 42.0 W/m2
08:50 62.1 °F 58.5 °F 29.81 in Calm     88% 0.00 in 60.0 W/m2
08:55 62.2 °F 57.9 °F 29.81 in Calm   2.0 mph 86% 0.00 in 65.0 W/m2
09:00 62.8 °F 58.3 °F 29.81 in WSW 0.9 mph 1.0 mph 85% 0.00 in 90.0 W/m2
09:05 63.0 °F 58.1 °F 29.81 in Calm   3.0 mph 84% 0.00 in 160.0 W/m2
09:10 63.7 °F 58.5 °F 29.81 in Calm   1.0 mph 83% 0.00 in 163.0 W/m2
09:15 64.0 °F 58.8 °F 29.82 in Calm   4.0 mph 83% 0.00 in 142.0 W/m2
09:20 64.8 °F 59.2 °F 29.82 in WNW 2.0 mph 3.0 mph 82% 0.00 in 207.0 W/m2
09:25 64.9 °F 59.0 °F 29.82 in Calm   1.0 mph 81% 0.00 in 218.0 W/m2
09:31 65.1 °F 59.2 °F 29.81 in Calm   3.0 mph 81% 0.00 in 265.0 W/m2
09:36 65.5 °F 59.5 °F 29.81 in Calm   1.0 mph 81% 0.00 in 696.0 W/m2
09:41 66.0 °F 59.7 °F 29.81 in Calm   3.0 mph 80% 0.00 in 810.0 W/m2
09:46 66.7 °F 59.7 °F 29.82 in SW 2.9 mph 6.0 mph 78% 0.00 in 810.0 W/m2
09:51 66.9 °F 59.5 °F 29.82 in Calm   3.0 mph 77% 0.00 in 221.0 W/m2
09:56 67.1 °F 59.7 °F 29.82 in Calm   2.0 mph 77% 0.00 in 306.0 W/m2
10:01 67.5 °F 59.5 °F 29.82 in Calm   3.0 mph 76% 0.00 in 701.0 W/m2
10:06 68.2 °F 59.9 °F 29.82 in WNW 0.9 mph 3.0 mph 75% 0.00 in 675.0 W/m2
10:11 68.7 °F 60.1 °F 29.82 in SW 4.0 mph 4.0 mph 74% 0.00 in 457.0 W/m2
10:16 69.1 °F 59.7 °F 29.81 in Calm   2.0 mph 72% 0.00 in 884.0 W/m2
10:21 69.4 °F 60.4 °F 29.81 in NNW 0.9 mph 2.0 mph 73% 0.00 in 288.0 W/m2
10:27 70.0 °F 60.1 °F 29.81 in Calm   3.0 mph 71% 0.00 in 826.0 W/m2
10:32 70.5 °F 60.3 °F 29.81 in Calm   2.0 mph 70% 0.00 in 867.0 W/m2
10:37 71.1 °F 59.9 °F 29.81 in Calm   1.0 mph 68% 0.00 in 870.0 W/m2
10:42 71.8 °F 61.0 °F 29.81 in Calm   5.0 mph 69% 0.00 in 925.0 W/m2
10:47 72.1 °F 60.6 °F 29.81 in West 4.0 mph 4.0 mph 67% 0.00 in 1018.0 W/m2
10:52 72.1 °F 60.6 °F 29.81 in West 0.9 mph 2.0 mph 67% 0.00 in 958.0 W/m2
10:57 72.7 °F 60.6 °F 29.81 in WSW 0.9 mph 3.0 mph 66% 0.00 in 962.0 W/m2
11:02 73.0 °F 60.6 °F 29.81 in Calm   3.0 mph 65% 0.00 in 1093.0 W/m2
11:08 73.2 °F 60.8 °F 29.81 in West 0.9 mph 3.0 mph 65% 0.00 in 1093.0 W/m2
11:13 73.6 °F 60.6 °F 29.81 in NE 0.9 mph 3.0 mph 64% 0.00 in 1100.0 W/m2
11:18 74.1 °F 60.8 °F 29.81 in Calm   1.0 mph 63% 0.00 in 329.0 W/m2
11:23 74.5 °F 61.5 °F 29.81 in Calm   1.0 mph 64% 0.00 in 1072.0 W/m2
11:28 74.5 °F 60.6 °F 29.81 in Calm   1.0 mph 62% 0.00 in 230.0 W/m2
11:33 74.7 °F 60.8 °F 29.80 in Calm   3.0 mph 62% 0.00 in 253.0 W/m2
11:38 74.7 °F 60.8 °F 29.80 in WSW 2.9 mph 4.0 mph 62% 0.00 in 1027.0 W/m2
11:43 74.8 °F 60.4 °F 29.80 in Calm   3.0 mph 61% 0.00 in 111.0 W/m2
11:48 74.7 °F 59.9 °F 29.80 in Calm   1.0 mph 60% 0.00 in 1072.0 W/m2
11:53 75.0 °F 59.7 °F 29.80 in West 0.9 mph 1.0 mph 59% 0.00 in 1090.0 W/m2
11:59 75.2 °F 59.9 °F 29.79 in Calm   2.0 mph 59% 0.00 in 1083.0 W/m2
12:04 75.7 °F 60.8 °F 29.79 in NNW 4.9 mph 6.0 mph 60% 0.00 in 564.0 W/m2
12:09 76.3 °F 60.4 °F 29.79 in NW 0.9 mph 5.0 mph 58% 0.00 in 1053.0 W/m2
12:14 76.6 °F 60.3 °F 29.79 in Calm   3.0 mph 57% 0.00 in 1042.0 W/m2
12:20 77.5 °F 60.6 °F 29.79 in North 0.9 mph 7.0 mph 56% 0.00 in 1056.0 W/m2
12:25 78.4 °F 60.4 °F 29.78 in North 4.0 mph 6.0 mph 54% 0.00 in 1086.0 W/m2
12:30 79.0 °F 60.4 °F 29.78 in Calm   3.0 mph 53% 0.00 in 1081.0 W/m2
12:35 79.3 °F 60.3 °F 29.78 in SSW 0.9 mph 2.0 mph 52% 0.00 in 1097.0 W/m2
12:41 79.5 °F 59.7 °F 29.78 in NW 0.9 mph 3.0 mph 51% 0.00 in 1157.0 W/m2
12:46 79.9 °F 60.1 °F 29.78 in West 2.9 mph 7.0 mph 51% 0.00 in 1278.0 W/m2
12:51 79.5 °F 60.4 °F 29.78 in SW 2.9 mph 6.0 mph 52% 0.00 in 1241.0 W/m2
12:56 79.0 °F 59.9 °F 29.78 in NNW 4.9 mph 5.0 mph 52% 0.00 in 295.0 W/m2
13:01 79.3 °F 60.3 °F 29.78 in North 4.0 mph 6.0 mph 52% 0.00 in 1148.0 W/m2
13:06 79.9 °F 60.1 °F 29.77 in West 2.0 mph 6.0 mph 51% 0.00 in 1134.0 W/m2
13:11 79.5 °F 60.4 °F 29.77 in Calm   2.0 mph 52% 0.00 in 204.0 W/m2
13:16 79.2 °F 60.6 °F 29.77 in ENE 4.0 mph 4.0 mph 53% 0.00 in 202.0 W/m2
13:21 79.2 °F 60.1 °F 29.77 in Calm   6.0 mph 52% 0.00 in 1076.0 W/m2
13:26 79.2 °F 60.6 °F 29.76 in SW 4.0 mph 8.0 mph 53% 0.00 in 1116.0 W/m2
13:32 79.3 °F 60.8 °F 29.76 in Calm   2.0 mph 53% 0.00 in 1116.0 W/m2
13:37 80.1 °F 60.3 °F 29.76 in NW 0.9 mph 6.0 mph 51% 0.00 in 1063.0 W/m2
13:43 80.8 °F 61.0 °F 29.76 in North 4.0 mph 5.0 mph 51% 0.00 in 1046.0 W/m2
13:48 81.3 °F 61.0 °F 29.75 in NE 2.9 mph 6.0 mph 50% 0.00 in 1041.0 W/m2
13:53 81.5 °F 61.0 °F 29.75 in NNW 2.9 mph 4.0 mph 50% 0.00 in 1034.0 W/m2
13:58 81.7 °F 60.6 °F 29.75 in SSW 2.0 mph 8.0 mph 49% 0.00 in 1049.0 W/m2
14:03 81.3 °F 60.3 °F 29.75 in SW 2.9 mph 5.0 mph 49% 0.00 in 199.0 W/m2
14:08 81.3 °F 59.7 °F 29.74 in Calm   6.0 mph 48% 0.00 in 1037.0 W/m2
14:13 81.7 °F 60.6 °F 29.74 in NNE 2.9 mph 4.0 mph 49% 0.00 in 1023.0 W/m2
14:18 82.2 °F 60.6 °F 29.74 in Calm   5.0 mph 48% 0.00 in 1007.0 W/m2
14:23 82.6 °F 60.3 °F 29.73 in North 0.9 mph 10.0 mph 47% 0.00 in 1016.0 W/m2
14:29 82.8 °F 59.9 °F 29.73 in North 2.9 mph 8.0 mph 46% 0.00 in 425.0 W/m2
14:34 82.8 °F 60.4 °F 29.73 in WSW 2.0 mph 8.0 mph 47% 0.00 in 930.0 W/m2
14:39 82.4 °F 59.5 °F 29.72 in NE 2.9 mph 7.0 mph 46% 0.00 in 949.0 W/m2
14:44 82.2 °F 59.4 °F 29.72 in WSW 2.0 mph 2.0 mph 46% 0.00 in 181.0 W/m2
14:49 82.4 °F 58.3 °F 29.72 in South 2.0 mph 2.0 mph 44% 0.00 in 877.0 W/m2
14:54 82.0 °F 58.6 °F 29.72 in WNW 2.0 mph 4.0 mph 45% 0.00 in 155.0 W/m2
14:59 81.3 °F 59.2 °F 29.72 in Calm   1.0 mph 47% 0.00 in 125.0 W/m2
15:04 81.3 °F 58.6 °F 29.72 in Calm   10.0 mph 46% 0.00 in 912.0 W/m2
15:10 81.7 °F 59.5 °F 29.72 in SW 4.0 mph 7.0 mph 47% 0.00 in 889.0 W/m2
15:15 81.7 °F 58.8 °F 29.72 in Calm   4.0 mph 46% 0.00 in 153.0 W/m2
15:20 81.3 °F 58.6 °F 29.71 in West 2.9 mph 9.0 mph 46% 0.00 in 904.0 W/m2
15:25 81.7 °F 59.5 °F 29.71 in WNW 4.9 mph 5.0 mph 47% 0.00 in 891.0 W/m2
15:30 82.0 °F 59.2 °F 29.71 in WSW 0.9 mph 4.0 mph 46% 0.00 in 860.0 W/m2
15:35 82.0 °F 57.9 °F 29.71 in SSW 4.0 mph 10.0 mph 44% 0.00 in 817.0 W/m2
15:40 81.9 °F 59.0 °F 29.71 in SW 2.0 mph 4.0 mph 46% 0.00 in 123.0 W/m2
15:45 81.1 °F 57.7 °F 29.70 in West 8.9 mph 10.0 mph 45% 0.00 in 160.0 W/m2
15:50 81.1 °F 57.7 °F 29.70 in West 2.9 mph 10.0 mph 45% 0.00 in 775.0 W/m2
15:55 81.3 °F 57.9 °F 29.70 in SSW 4.0 mph 9.0 mph 45% 0.00 in 759.0 W/m2
16:01 81.9 °F 58.5 °F 29.70 in Calm   7.0 mph 45% 0.00 in 759.0 W/m2
16:06 82.4 °F 59.0 °F 29.70 in WSW 4.0 mph 7.0 mph 45% 0.00 in 761.0 W/m2
16:11 82.6 °F 58.5 °F 29.70 in WNW 0.9 mph 9.0 mph 44% 0.00 in 715.0 W/m2
16:16 82.6 °F 59.0 °F 29.70 in West 6.0 mph 9.0 mph 45% 0.00 in 661.0 W/m2
16:21 82.6 °F 59.0 °F 29.70 in SSW 4.9 mph 9.0 mph 45% 0.00 in 657.0 W/m2
16:26 82.2 °F 58.8 °F 29.70 in WSW 4.9 mph 7.0 mph 45% 0.00 in 656.0 W/m2
16:31 81.9 °F 58.5 °F 29.70 in SW 4.9 mph 13.0 mph 45% 0.00 in 638.0 W/m2
16:36 82.0 °F 58.6 °F 29.70 in WNW 4.9 mph 9.0 mph 45% 0.00 in 612.0 W/m2
16:41 82.0 °F 57.9 °F 29.70 in SSW 8.9 mph 12.0 mph 44% 0.00 in 568.0 W/m2
16:47 81.9 °F 57.7 °F 29.70 in WSW 6.9 mph 9.0 mph 44% 0.00 in 538.0 W/m2
16:52 81.7 °F 57.6 °F 29.70 in WNW 6.9 mph 10.0 mph 44% 0.00 in 520.0 W/m2
16:57 81.7 °F 57.6 °F 29.70 in WSW 4.0 mph 10.0 mph 44% 0.00 in 497.0 W/m2
17:02 81.5 °F 56.8 °F 29.70 in SW 8.9 mph 11.0 mph 43% 0.00 in 476.0 W/m2
17:07 81.1 °F 57.2 °F 29.70 in WSW 4.9 mph 10.0 mph 44% 0.00 in 455.0 W/m2
17:12 81.1 °F 57.2 °F 29.70 in South 6.0 mph 7.0 mph 44% 0.00 in 436.0 W/m2
17:17 81.0 °F 56.3 °F 29.70 in West 8.1 mph 10.0 mph 43% 0.00 in 415.0 W/m2
17:22 81.1 °F 56.5 °F 29.70 in SW 8.1 mph 9.0 mph 43% 0.00 in 394.0 W/m2
17:27 81.1 °F 56.5 °F 29.70 in West 4.9 mph 5.0 mph 43% 0.00 in 376.0 W/m2
17:33 81.0 °F 55.8 °F 29.70 in SW 4.9 mph 10.0 mph 42% 0.00 in 357.0 W/m2
17:38 81.0 °F 55.8 °F 29.70 in West 8.1 mph 9.0 mph 42% 0.00 in 338.0 W/m2
17:43 81.0 °F 55.0 °F 29.70 in West 2.0 mph 10.0 mph 41% 0.00 in 315.0 W/m2
17:48 81.0 °F 56.3 °F 29.70 in West 6.0 mph 10.0 mph 43% 0.00 in 294.0 W/m2
17:53 80.6 °F 56.1 °F 29.70 in WSW 4.0 mph 9.0 mph 43% 0.00 in 274.0 W/m2
17:58 80.4 °F 56.5 °F 29.70 in WSW 4.9 mph 10.0 mph 44% 0.00 in 253.0 W/m2
18:03 80.4 °F 56.5 °F 29.70 in SSW 4.9 mph 10.0 mph 44% 0.00 in 234.0 W/m2
18:08 80.2 °F 55.0 °F 29.70 in WSW 4.0 mph 9.0 mph 42% 0.00 in 213.0 W/m2
18:13 80.1 °F 56.1 °F 29.70 in SSE 6.0 mph 9.0 mph 44% 0.00 in 193.0 W/m2
18:19 79.9 °F 56.7 °F 29.70 in WSW 4.9 mph 8.0 mph 45% 0.00 in 171.0 W/m2
18:25 79.7 °F 56.5 °F 29.70 in West 6.0 mph 7.0 mph 45% 0.00 in 141.0 W/m2
18:30 79.3 °F 56.8 °F 29.70 in WSW 4.0 mph 6.0 mph 46% 0.00 in 114.0 W/m2
18:35 79.2 °F 56.7 °F 29.70 in WSW 2.0 mph 7.0 mph 46% 0.00 in 91.0 W/m2
18:40 79.2 °F 56.7 °F 29.70 in Calm   7.0 mph 46% 0.00 in 63.0 W/m2
18:45 79.0 °F 57.0 °F 29.71 in Calm   8.0 mph 47% 0.00 in 25.0 W/m2
18:50 78.4 °F 57.2 °F 29.71 in WSW 2.0 mph 4.0 mph 48% 0.00 in 19.0 W/m2
18:55 77.9 °F 56.7 °F 29.71 in WSW 2.0 mph 8.0 mph 48% 0.00 in 14.0 W/m2
19:00 77.4 °F 56.7 °F 29.71 in WSW 4.9 mph 5.0 mph 49% 0.00 in 11.0 W/m2
19:06 76.8 °F 56.3 °F 29.71 in SSW 2.0 mph 6.0 mph 49% 0.00 in 7.0 W/m2
19:11 76.3 °F 55.8 °F 29.71 in West 2.9 mph 7.0 mph 49% 0.00 in 5.0 W/m2
19:16 75.9 °F 55.9 °F 29.72 in WSW 0.9 mph 7.0 mph 50% 0.00 in 0.0 W/m2
19:21 75.6 °F 55.6 °F 29.72 in West 2.0 mph 7.0 mph 50% 0.00 in 0.0 W/m2
19:26 75.4 °F 55.4 °F 29.72 in WSW 0.9 mph 7.0 mph 50% 0.00 in 0.0 W/m2
19:31 75.0 °F 55.0 °F 29.72 in WSW 0.9 mph 3.0 mph 50% 0.00 in 0.0 W/m2
19:36 74.8 °F 55.6 °F 29.72 in West 2.0 mph 4.0 mph 51% 0.00 in 0.0 W/m2
19:41 74.7 °F 55.4 °F 29.72 in SW 0.9 mph 1.0 mph 51% 0.00 in 0.0 W/m2
19:46 74.5 °F 55.2 °F 29.72 in West 0.9 mph 3.0 mph 51% 0.00 in 0.0 W/m2
19:52 74.1 °F 54.9 °F 29.73 in Calm   3.0 mph 51% 0.00 in 0.0 W/m2
19:57 73.9 °F 55.2 °F 29.73 in WSW 0.9 mph 1.0 mph 52% 0.00 in 0.0 W/m2
20:02 73.8 °F 55.0 °F 29.73 in West 0.9 mph 3.0 mph 52% 0.00 in 0.0 W/m2
20:07 73.6 °F 54.3 °F 29.73 in Calm   2.0 mph 51% 0.00 in 0.0 W/m2
20:12 73.6 °F 54.9 °F 29.73 in Calm     52% 0.00 in 0.0 W/m2
20:17 73.2 °F 55.0 °F 29.73 in Calm   1.0 mph 53% 0.00 in 0.0 W/m2
20:22 73.0 °F 54.3 °F 29.73 in Calm   1.0 mph 52% 0.00 in 0.0 W/m2
20:27 72.9 °F 54.7 °F 29.73 in Calm     53% 0.00 in 0.0 W/m2
20:33 72.7 °F 54.5 °F 29.73 in Calm     53% 0.00 in 0.0 W/m2
20:38 72.5 °F 54.3 °F 29.73 in Calm     53% 0.00 in 0.0 W/m2
20:43 72.3 °F 54.7 °F 29.74 in Calm     54% 0.00 in 0.0 W/m2
20:48 72.0 °F 54.0 °F 29.74 in Calm     53% 0.00 in 0.0 W/m2
20:53 71.8 °F 53.8 °F 29.74 in Calm   1.0 mph 53% 0.00 in 0.0 W/m2
20:58 71.4 °F 52.3 °F 29.74 in Calm   2.0 mph 51% 0.00 in 0.0 W/m2
21:03 71.2 °F 52.7 °F 29.74 in Calm   1.0 mph 52% 0.00 in 0.0 W/m2
21:08 71.2 °F 52.2 °F 29.74 in Calm   2.0 mph 51% 0.00 in 0.0 W/m2
21:14 71.1 °F 52.0 °F 29.74 in WSW 0.9 mph 4.0 mph 51% 0.00 in 0.0 W/m2
21:20 71.1 °F 52.0 °F 29.74 in WSW 4.0 mph 6.0 mph 51% 0.00 in 0.0 W/m2
21:25 71.1 °F 51.4 °F 29.74 in WSW 2.9 mph 3.0 mph 50% 0.00 in 0.0 W/m2
21:30 71.1 °F 52.0 °F 29.75 in West 2.0 mph 3.0 mph 51% 0.00 in 0.0 W/m2
21:35 71.1 °F 52.0 °F 29.75 in WNW 4.9 mph 6.0 mph 51% 0.00 in 0.0 W/m2
21:40 70.9 °F 52.3 °F 29.75 in West 2.9 mph 6.0 mph 52% 0.00 in 0.0 W/m2
21:45 70.5 °F 52.5 °F 29.75 in WNW 2.0 mph 5.0 mph 53% 0.00 in 0.0 W/m2
21:50 70.3 °F 52.9 °F 29.75 in NW 0.9 mph 2.0 mph 54% 0.00 in 0.0 W/m2
21:55 70.2 °F 52.7 °F 29.74 in West 0.9 mph 4.0 mph 54% 0.00 in 0.0 W/m2
22:01 70.0 °F 53.1 °F 29.74 in Calm   2.0 mph 55% 0.00 in 0.0 W/m2
22:06 69.6 °F 52.7 °F 29.75 in Calm     55% 0.00 in 0.0 W/m2
22:11 69.4 °F 53.1 °F 29.75 in WNW 0.9 mph 2.0 mph 56% 0.00 in 0.0 W/m2
22:17 69.3 °F 53.4 °F 29.75 in West 0.9 mph 1.0 mph 57% 0.00 in 0.0 W/m2
22:22 69.1 °F 53.6 °F 29.75 in Calm     58% 0.00 in 0.0 W/m2
22:27 68.7 °F 53.4 °F 29.75 in WNW 0.9 mph 5.0 mph 58% 0.00 in 0.0 W/m2
22:33 68.4 °F 53.1 °F 29.75 in Calm   4.0 mph 58% 0.00 in 0.0 W/m2
22:38 68.4 °F 54.0 °F 29.75 in Calm   5.0 mph 60% 0.00 in 0.0 W/m2
22:43 68.2 °F 53.2 °F 29.75 in WSW 0.9 mph 2.0 mph 59% 0.00 in 0.0 W/m2
22:49 67.8 °F 53.4 °F 29.75 in Calm   1.0 mph 60% 0.00 in 0.0 W/m2
22:54 67.8 °F 53.4 °F 29.75 in West 0.9 mph 1.0 mph 60% 0.00 in 0.0 W/m2
22:59 67.6 °F 53.2 °F 29.75 in Calm   3.0 mph 60% 0.00 in 0.0 W/m2
23:04 67.5 °F 53.6 °F 29.75 in Calm   2.0 mph 61% 0.00 in 0.0 W/m2
23:09 67.3 °F 53.4 °F 29.75 in Calm   1.0 mph 61% 0.00 in 0.0 W/m2
23:14 67.3 °F 53.8 °F 29.75 in Calm     62% 0.00 in 0.0 W/m2
23:19 67.1 °F 54.1 °F 29.75 in Calm     63% 0.00 in 0.0 W/m2
23:24 66.9 °F 54.0 °F 29.75 in Calm     63% 0.00 in 0.0 W/m2
23:29 66.7 °F 55.0 °F 29.75 in Calm     66% 0.00 in 0.0 W/m2
23:35 66.6 °F 54.9 °F 29.75 in Calm     66% 0.00 in 0.0 W/m2
23:40 66.2 °F 55.4 °F 29.75 in Calm     68% 0.00 in 0.0 W/m2
23:45 65.8 °F 55.8 °F 29.75 in Calm     70% 0.00 in 0.0 W/m2
23:50 65.7 °F 55.9 °F 29.75 in Calm     71% 0.00 in 0.0 W/m2
23:55 65.5 °F 55.4 °F 29.75 in Calm     70% 0.00 in 0.0 W/m2
Olympia, Windhoek, Namibia
Compliments of Weather Underground - 3.25 mb